Melrose, Minnesota
Current Conditions -  °F | °C
As of 9:13 AM on Thursday 23 Oct 2014 (Local Time) from KD39 Reporting Station
Moderate Fog Moderate Fog  
Wind Chill: 46°   Ceiling: 300
Heat Index: 46°   Visibility: 0mi
Dew Point: 46°   Wind: 3mph
Humidity: 100%   Direction: 180°S
Pressure: 29.98"   Gusts: NA
Location:  45.67°N, 94.81°W
Report Text: KD39 231413Z AUTO 18003KT M1/4SM FG OVC003 08/08 A2998 RMK AO2 T00800080
Loading
Personal Weather Stations






























Interactive Weather Map
Tropical Storm Tracking
New forecast layout! Learn more

10-Day Weather Forecast

Advertisements
Track Severe Weather on mobile